Ab Barik, Iran

10:27 AM +0430 on August 24, 2017 (GMT +0430)
Shahid Hashemi Nejad International | | Change Station

Elev 3245 ft 36.27 °N, 59.63 °E | Updated 27 minutes ago

Clear
Clear
82 °F
Feels Like 82 °F
N
7
Wind Variable Wind from NE

Today
High -- | Low -- °F
--% Chance of Precip.
Yesterday
High -- | Low -- °F
Precip. -- in
Pressure 30.04 in
Visibility -9999.0 miles
Clouds
Dew Point 25 °F
Humidity 12%
Rainfall 0.00 in
Snow Depth Not available.
5:58 AM 7:11 PM
Waxing Crescent, 7% visible
METAR OIMM 240530Z 04006KT CAVOK 28/M04 Q1017 A3003
Pressure 30.04 in
Visibility -9999.0 miles
Clouds
Dew Point 25 °F
Humidity 12%
Rainfall 0.00 in
Snow Depth Not available.
5:58 AM 7:11 PM
Waxing Crescent, 7% visible
METAR OIMM 240530Z 04006KT CAVOK 28/M04 Q1017 A3003

Get Severe Weather Alerts

Thanks for signing up!

Be on the lookout for a verification email in your inbox.

You'll start receiving the daily forecast at 6 AM.

×

10-Day Weather Forecast

No radar image for this location.
×

Almanac

Astronomy

Aug. 24, 2017 Rise Set
Actual Time
Civil Twilight
Nautical Twilight
Astronomical Twilight
Moon
Length of Visible Light
Length of Day
Tomorrow will be .
, % of the Moon is Illuminated

Today's Extremes

Country Highs Country Lows

Community

WunderPhotos

Category 6

Welcome to Category 6. This is the collective home for Weather Underground's featured writeups by Dr. Jeff Masters (right), Bob Henson (left), Chris Burt, and other regular contributors.

Nearby

Air Quality

  Air Quality AQ Index Pollutant
Not available.

Snow Depth

Station Depth Elevation

Earthquake Activity

City Distance Mag. Time & Date
Minimum magnitude displayed is 2.5.

Coastal Water Temperatures

Place Temperature

Stations

Nearby Weather Stations

Station Location Temp. Windchill Dew Point Humidity Wind Precip. Elev Updated Type